West Fairlee, VT (05083)

10:54 AM EST on February 09, 2016 (GMT -0500)
Parker Rd | | Change Station
CLOSE
Current Station
Personal Weather Station
Location: Vershire, VT
Elevation: 1273 ft
Nearby Weather Stations

Elev 1273 ft 43.93 °N, 72.30 °W | Updated 9 minutes ago

Overcast
Overcast
20.6 °F
Feels Like 21 °F
N
1.0
Wind Variable Wind from ENE
Gusts 1.0 mph

Today
High -- | Low -- °F
--% Chance of Precip.
Yesterday
High -- | Low -- °F
Precip. -- in
Pressure 29.69 in
Visibility 2.5 miles
Clouds Mostly Cloudy 2400 ft
Overcast 2900 ft
Windchill 21 °F
Dew Point 15 °F
Humidity 80%
Rainfall 0.00 in
Snow Depth Not available.
6:57 AM 5:09 PM
New Moon, 1% visible
SPECI KLEB 091525Z 17007KT 2 1/2SM -SN BKN024 OVC029 M06/M10 A2969 RMK AO2 SNB06 P0000 T10561100
Pressure 29.69 in
Visibility 2.5 miles
Clouds Mostly Cloudy 2400 ft
Overcast 2900 ft
Windchill 21 °F
Dew Point 15 °F
Humidity 80%
Rainfall 0.00 in
Snow Depth Not available.
6:57 AM 5:09 PM
New Moon, 1% visible
SPECI KLEB 091525Z 17007KT 2 1/2SM -SN BKN024 OVC029 M06/M10 A2969 RMK AO2 SNB06 P0000 T10561100

10-Day Weather Forecast

Almanac

Astronomy

Feb. 09, 2016 Rise Set
Actual Time
Civil Twilight
Nautical Twilight
Astronomical Twilight
Moon
Length of Visible Light
Length of Day
Tomorrow will be .
, % of the Moon is Illuminated

Today's Extremes

State Highs State Lows

Community

WunderPhotos

Upload Photos

1,891,628 photos uploaded!

WunderBlog® & News

Nearby

Air Quality

  Air Quality AQ Index Pollutant
Not available.

Snow Depth

Station Depth Elevation

Earthquake Activity

City Distance Mag. Time & Date
Minimum magnitude displayed is 2.5.

Coastal Water Temperatures

Place Temperature

Stations

Nearby Weather Stations

Station Location Temp. Windchill Dew Point Humidity Wind Precip. Elev Updated Type
                   

Watches & Warnings

There are currently no watches in effect.